Time;durP1;ratioP1;P1;durP2;ratioP2;P2;SDS_P1;SDS_P2;PMS_P1;PMS_P2;Temp;Humidity;BMP_temperature;BMP_pressure;BME280_temperature;BME280_humidity;BME280_pressure;Samples;Min_cycle;Max_cycle;Signal;HPM_P1;HPM_P2
2022/09/16 06:48:42;;;;;;;7.57;4.00;;;;;;;11.92;100.00;98437.66;5080807;27;20424;-77
2022/09/16 06:51:12;;;;;;;12.02;3.97;;;;;;;12.07;100.00;98463.88;5088634;28;20075;-77
2022/09/16 06:53:38;;;;;;;10.90;4.10;;;;;;;12.17;100.00;98456.94;5087544;28;20064;-77
2022/09/16 06:56:07;;;;;;;8.77;4.22;;;;;;;12.36;100.00;98459.81;5086534;28;20071;-77
2022/09/16 06:58:35;;;;;;;9.32;2.90;;;;;;;12.29;100.00;98448.13;5086969;28;20048;-74
2022/09/16 07:01:05;;;;;;;6.70;3.05;;;;;;;12.35;100.00;98444.53;5081966;28;20056;-75
2022/09/16 07:03:31;;;;;;;10.38;2.92;;;;;;;12.34;100.00;98445.59;5083435;28;20059;-75
2022/09/16 07:06:01;;;;;;;6.75;2.58;;;;;;;12.43;100.00;98454.38;5087870;28;20135;-75
2022/09/16 07:08:28;;;;;;;6.00;2.22;;;;;;;12.34;100.00;98448.31;5087885;28;20620;-75
2022/09/16 07:10:57;;;;;;;7.30;2.78;;;;;;;12.32;100.00;98434.06;5087670;28;20048;-75
2022/09/16 07:13:23;;;;;;;5.55;1.90;;;;;;;12.54;100.00;98459.16;5078521;28;20076;-75
2022/09/16 07:15:50;;;;;;;5.15;2.22;;;;;;;12.56;100.00;98443.44;5087324;28;20048;-76
2022/09/16 07:18:16;;;;;;;9.65;2.00;;;;;;;12.58;100.00;98454.94;5087713;28;20063;-76
2022/09/16 07:20:43;;;;;;;3.70;1.80;;;;;;;12.50;100.00;98447.84;5078934;28;20419;-76
2022/09/16 07:23:11;;;;;;;4.28;2.05;;;;;;;12.28;100.00;98454.63;5086215;28;20044;-76
2022/09/16 07:25:37;;;;;;;11.50;4.90;;;;;;;12.20;100.00;98445.63;5074807;28;20056;-76
2022/09/16 07:28:04;;;;;;;19.65;7.25;;;;;;;12.19;100.00;98452.13;5085932;28;20045;-77
2022/09/16 07:30:33;;;;;;;13.57;7.00;;;;;;;12.39;100.00;98464.88;5079376;28;20400;-77
2022/09/16 07:32:59;;;;;;;9.38;3.55;;;;;;;12.45;100.00;98458.56;5077683;28;20491;-76
2022/09/16 07:35:26;;;;;;;10.88;3.47;;;;;;;12.52;100.00;98458.53;5087431;28;20241;-77
2022/09/16 07:37:52;;;;;;;8.65;2.17;;;;;;;12.31;100.00;98443.28;5087020;28;20055;-77
2022/09/16 07:40:20;;;;;;;4.47;1.83;;;;;;;12.34;100.00;98470.13;5087347;28;20045;-76
2022/09/16 07:42:46;;;;;;;4.68;1.55;;;;;;;12.45;100.00;98447.66;5086125;28;20044;-76
2022/09/16 07:45:13;;;;;;;2.70;1.55;;;;;;;12.55;100.00;98458.09;5079036;28;20052;-76
2022/09/16 07:47:39;;;;;;;4.80;1.80;;;;;;;12.62;100.00;98469.84;5075178;28;20060;-76
2022/09/16 07:50:07;;;;;;;5.00;1.40;;;;;;;12.62;100.00;98474.47;5086877;28;20044;-76
2022/09/16 07:52:33;;;;;;;8.90;1.80;;;;;;;12.67;100.00;98464.56;5086065;28;20109;-76
2022/09/16 07:55:00;;;;;;;8.25;2.13;;;;;;;12.77;100.00;98458.66;5087105;28;20052;-76
2022/09/16 07:57:28;;;;;;;11.55;1.88;;;;;;;12.75;100.00;98449.84;5085558;28;20059;-76
2022/09/16 07:59:56;;;;;;;2.50;1.70;;;;;;;12.90;100.00;98465.94;5065141;28;20055;-76
2022/09/16 08:02:23;;;;;;;3.75;2.38;;;;;;;12.98;100.00;98465.69;5072326;28;20052;-76
2022/09/16 08:04:49;;;;;;;5.25;2.05;;;;;;;12.96;100.00;98467.78;5066710;28;20083;-76
2022/09/16 08:07:16;;;;;;;5.60;1.85;;;;;;;12.99;100.00;98482.88;5072996;28;20399;-76
2022/09/16 08:09:42;;;;;;;5.35;1.90;;;;;;;12.92;100.00;98478.31;5064186;28;20059;-76
2022/09/16 08:12:09;;;;;;;4.18;1.88;;;;;;;12.92;100.00;98472.03;5064045;28;20067;-77
2022/09/16 08:14:38;;;;;;;5.40;1.92;;;;;;;13.16;100.00;98480.47;5071920;28;20095;-78
2022/09/16 08:17:06;;;;;;;6.25;2.25;;;;;;;13.08;100.00;98478.84;5066309;28;20764;-78
2022/09/16 08:19:33;;;;;;;2.72;1.90;;;;;;;13.24;100.00;98493.88;5063550;28;20052;-78
2022/09/16 08:21:59;;;;;;;6.45;2.60;;;;;;;13.25;100.00;98481.94;5066401;28;20056;-78
2022/09/16 08:24:26;;;;;;;7.18;2.15;;;;;;;13.18;100.00;98487.41;5061624;28;20095;-77
2022/09/16 08:26:53;;;;;;;4.60;2.30;;;;;;;13.02;100.00;98479.72;5061012;28;20052;-75
2022/09/16 08:29:21;;;;;;;8.73;2.45;;;;;;;13.24;100.00;98485.69;5069508;28;20041;-79
2022/09/16 08:31:49;;;;;;;6.85;2.78;;;;;;;13.35;100.00;98489.66;5061424;28;20597;-77
2022/09/16 08:34:15;;;;;;;8.80;2.92;;;;;;;13.41;100.00;98492.38;5063884;28;20051;-77
2022/09/16 08:36:42;;;;;;;5.18;2.63;;;;;;;13.44;100.00;98493.78;5060495;28;20495;-77
2022/09/16 08:39:09;;;;;;;7.72;3.03;;;;;;;13.35;100.00;98486.94;5072467;28;20060;-77
2022/09/16 08:42:08;;;;;;;8.70;2.78;;;;;;;13.45;100.00;98495.47;5062333;28;20040;-77
2022/09/16 08:44:55;;;;;;;14.68;3.08;;;;;;;13.54;100.00;98504.25;5052910;28;20080;-77
2022/09/16 08:47:34;;;;;;;10.77;3.65;;;;;;;13.60;100.00;98497.91;5061860;28;20052;-78
2022/09/16 08:50:05;;;;;;;13.23;3.63;;;;;;;13.50;100.00;98492.91;5061066;28;20041;-77
2022/09/16 08:52:34;;;;;;;6.53;3.38;;;;;;;13.54;100.00;98496.06;5062396;28;20045;-77
2022/09/16 08:55:06;;;;;;;6.95;4.10;;;;;;;13.65;100.00;98499.97;5057907;28;20691;-77
2022/09/16 08:57:38;;;;;;;5.53;3.63;;;;;;;13.55;100.00;98490.38;5059080;28;20051;-77
2022/09/16 09:00:12;;;;;;;10.80;3.50;;;;;;;13.48;100.00;98491.47;5070193;28;20413;-77
2022/09/16 09:02:47;;;;;;;5.60;3.90;;;;;;;13.60;100.00;98506.91;5063801;28;20049;-77
2022/09/16 09:05:19;;;;;;;5.55;3.75;;;;;;;13.54;100.00;98496.88;5060304;28;20044;-79
2022/09/16 09:08:03;;;;;;;9.15;3.72;;;;;;;13.51;100.00;98493.75;5065178;28;20044;-77
2022/09/16 09:10:38;;;;;;;9.07;3.83;;;;;;;13.68;100.00;98481.22;5060571;28;20044;-77
2022/09/16 09:13:13;;;;;;;10.38;4.03;;;;;;;13.71;100.00;98488.97;5062107;28;20055;-77
2022/09/16 09:15:43;;;;;;;8.40;3.85;;;;;;;13.75;100.00;98481.19;5061566;28;20443;-77
2022/09/16 09:18:25;;;;;;;6.72;3.83;;;;;;;14.04;100.00;98489.78;5062671;28;20048;-78
2022/09/16 09:20:57;;;;;;;11.82;4.30;;;;;;;13.86;100.00;98488.66;5062256;28;20576;-78
2022/09/16 09:23:47;;;;;;;5.68;3.70;;;;;;;13.88;100.00;98493.91;5052816;28;20053;-77
2022/09/16 09:26:21;;;;;;;11.70;3.65;;;;;;;13.68;100.00;98488.59;5065336;28;20055;-77
2022/09/16 09:29:18;;;;;;;7.57;3.92;;;;;;;13.69;100.00;98503.94;5071349;28;20454;-77
2022/09/16 09:31:56;;;;;;;4.07;3.60;;;;;;;13.62;100.00;98491.16;5069808;28;20055;-78
2022/09/16 09:34:44;;;;;;;5.22;3.83;;;;;;;13.81;100.00;98492.06;5059588;28;20230;-78
2022/09/16 09:37:29;;;;;;;7.22;3.92;;;;;;;13.65;100.00;98484.41;5051320;28;20049;-78
2022/09/16 09:40:07;;;;;;;8.52;3.58;;;;;;;13.54;100.00;98496.88;5051494;28;20456;-77
2022/09/16 09:42:39;;;;;;;8.02;3.65;;;;;;;13.44;100.00;98489.19;5064909;28;20044;-77
2022/09/16 09:45:18;;;;;;;5.18;3.95;;;;;;;13.56;100.00;98497.50;5063875;28;20041;-78
2022/09/16 09:47:49;;;;;;;7.95;4.00;;;;;;;13.71;100.00;98486.25;5071360;28;20052;-78
2022/09/16 09:50:22;;;;;;;9.65;3.92;;;;;;;14.00;100.00;98494.88;5069753;28;20392;-78
2022/09/16 09:52:56;;;;;;;14.07;6.43;;;;;;;13.75;100.00;98495.69;5050715;28;20048;-77
2022/09/16 09:55:24;;;;;;;7.53;4.22;;;;;;;13.80;100.00;98486.81;5051296;28;20057;-78
2022/09/16 09:58:14;;;;;;;7.00;4.03;;;;;;;13.77;100.00;98481.78;5056490;28;20048;-78
2022/09/16 10:00:40;;;;;;;8.15;3.97;;;;;;;13.81;100.00;98491.22;5068803;28;20071;-77
2022/09/16 10:03:11;;;;;;;5.25;3.85;;;;;;;13.76;100.00;98494.63;5070623;28;20048;-75
2022/09/16 10:05:40;;;;;;;8.02;3.90;;;;;;;13.74;100.00;98487.72;5070265;28;20080;-76
2022/09/16 10:08:15;;;;;;;11.82;5.05;;;;;;;13.67;100.00;98484.19;5055510;28;20056;-75
2022/09/16 10:10:49;;;;;;;7.72;3.92;;;;;;;13.52;100.00;98471.69;5051769;28;20049;-76
2022/09/16 10:13:16;;;;;;;14.55;4.38;;;;;;;13.50;100.00;98476.53;5060425;28;20048;-76
2022/09/16 10:15:43;;;;;;;5.85;4.13;;;;;;;13.61;100.00;98477.75;5070745;28;20084;-76
2022/09/16 10:18:14;;;;;;;9.00;4.00;;;;;;;13.61;100.00;98480.47;5070833;28;20044;-76
2022/09/16 10:20:45;;;;;;;6.60;4.25;;;;;;;13.63;100.00;98478.34;5065043;28;20048;-76
2022/09/16 10:23:13;;;;;;;8.77;4.22;;;;;;;13.44;100.00;98472.81;5049137;28;20388;-76
2022/09/16 10:25:41;;;;;;;6.68;3.85;;;;;;;13.45;100.00;98482.66;5069015;28;20048;-76
2022/09/16 10:28:19;;;;;;;7.32;3.53;;;;;;;13.39;100.00;98479.97;5067879;28;20037;-76
2022/09/16 10:30:49;;;;;;;10.27;4.00;;;;;;;13.45;100.00;98476.38;5070732;28;20052;-76
2022/09/16 10:33:23;;;;;;;6.35;3.33;;;;;;;13.41;100.00;98472.41;5069306;28;20060;-76
2022/09/16 10:35:57;;;;;;;11.57;3.85;;;;;;;13.42;100.00;98471.34;5066943;28;20052;-76
2022/09/16 10:38:26;;;;;;;6.40;3.65;;;;;;;13.21;100.00;98472.50;5068803;28;20071;-76
2022/09/16 10:40:54;;;;;;;5.63;3.35;;;;;;;13.33;100.00;98478.94;5070304;28;20056;-76
2022/09/16 10:43:22;;;;;;;14.02;3.50;;;;;;;13.41;100.00;98486.03;5057689;28;20044;-76
2022/09/16 10:45:51;;;;;;;6.13;3.92;;;;;;;13.35;100.00;98490.47;5070163;28;20052;-76
2022/09/16 10:48:22;;;;;;;6.32;4.13;;;;;;;13.35;100.00;98487.75;5070406;28;20080;-76
2022/09/16 10:50:55;;;;;;;4.82;3.55;;;;;;;13.34;100.00;98497.03;5070387;28;20057;-76
2022/09/16 10:53:26;;;;;;;11.55;4.13;;;;;;;13.25;100.00;98488.22;5070000;28;20056;-76
2022/09/16 10:56:00;;;;;;;7.05;4.00;;;;;;;13.31;100.00;98483.78;5063106;28;20049;-76
2022/09/16 10:58:27;;;;;;;8.25;3.78;;;;;;;13.27;100.00;98472.44;5066038;28;20075;-76
2022/09/16 11:01:13;;;;;;;4.63;3.88;;;;;;;13.40;100.00;98493.41;5070160;28;20053;-76
2022/09/16 11:04:21;;;;;;;4.80;3.40;;;;;;;13.36;100.00;98489.44;5061367;28;20055;-76
2022/09/16 11:07:03;;;;;;;9.05;4.10;;;;;;;13.36;100.00;98486.72;5066110;28;20056;-76
2022/09/16 11:09:35;;;;;;;6.07;4.45;;;;;;;13.41;100.00;98486.03;5060433;28;20510;-77
2022/09/16 11:12:32;;;;;;;9.95;3.65;;;;;;;13.45;100.00;98479.09;5068302;28;20121;-77
2022/09/16 11:15:11;;;;;;;7.43;3.88;;;;;;;13.50;100.00;98484.72;5062125;28;20064;-77
2022/09/16 11:17:58;;;;;;;9.02;3.78;;;;;;;13.66;100.00;98486.09;5070438;28;20060;-78
2022/09/16 11:20:39;;;;;;;6.25;2.80;;;;;;;13.66;100.00;98488.81;5068820;28;20136;-78
2022/09/16 11:23:18;;;;;;;7.80;3.20;;;;;;;13.63;100.00;98489.25;5059145;28;20045;-78
2022/09/16 11:25:51;;;;;;;10.03;3.20;;;;;;;13.76;100.00;98491.03;5049931;28;20053;-78
2022/09/16 11:28:41;;;;;;;7.85;2.63;;;;;;;13.85;100.00;98502.53;5050165;28;20338;-78
2022/09/16 11:31:19;;;;;;;5.57;2.72;;;;;;;13.89;100.00;98503.78;5053377;28;20070;-75
2022/09/16 11:33:56;;;;;;;3.88;2.70;;;;;;;14.10;100.00;98508.84;5068135;28;20048;-76
2022/09/16 11:36:35;;;;;;;5.22;2.45;;;;;;;14.28;100.00;98496.28;5073584;28;20110;-76
2022/09/16 11:39:25;;;;;;;6.25;2.80;;;;;;;14.44;100.00;98503.91;5073770;28;20055;-76
2022/09/16 11:41:59;;;;;;;5.05;2.95;;;;;;;14.40;100.00;98507.31;5072072;28;20044;-76
2022/09/16 11:44:41;;;;;;;6.25;2.83;;;;;;;14.44;100.00;98500.34;5073139;28;20079;-76
2022/09/16 11:47:21;;;;;;;8.07;2.13;;;;;;;14.12;100.00;98495.81;5069875;28;20041;-76
2022/09/16 11:49:55;;;;;;;;;;;;;;;14.22;100.00;98508.94;5070994;28;20044;-76
2022/09/16 11:52:37;;;;;;;5.28;2.30;;;;;;;14.34;100.00;98498.94;5072587;28;20335;-76
2022/09/16 11:55:19;;;;;;;4.53;1.75;;;;;;;14.52;99.79;98503.59;5072230;28;20052;-76
2022/09/16 11:57:51;;;;;;;2.72;2.10;;;;;;;14.80;100.00;98494.06;5053302;28;20464;-76
2022/09/16 12:00:19;;;;;;;4.38;2.10;;;;;;;15.20;99.01;98492.72;5053478;28;20049;-76
2022/09/16 12:02:54;;;;;;;5.80;1.80;;;;;;;15.01;89.89;98495.50;5053749;28;20045;-76
2022/09/16 12:05:25;;;;;;;4.40;1.40;;;;;;;15.05;91.92;98504.06;5069758;28;20098;-76
2022/09/16 12:08:01;;;;;;;4.75;1.52;;;;;;;15.18;86.38;98492.94;5072000;28;20053;-76
2022/09/16 12:10:33;;;;;;;3.33;1.80;;;;;;;15.33;90.37;98495.28;5067759;28;20048;-76
2022/09/16 12:13:05;;;;;;;5.00;1.20;;;;;;;15.64;83.99;98457.75;5052717;28;20060;-76
2022/09/16 12:15:37;;;;;;;5.78;2.00;;;;;;;15.87;83.41;98475.31;5052786;28;20631;-76
2022/09/16 12:18:12;;;;;;;5.97;1.70;;;;;;;15.85;78.81;98458.28;5065263;28;20487;-76
2022/09/16 12:20:44;;;;;;;3.95;1.63;;;;;;;15.93;79.08;98449.72;5073204;28;20057;-77
2022/09/16 12:23:17;;;;;;;7.20;2.15;;;;;;;15.82;72.63;98459.59;5072100;28;20507;-78
2022/09/16 12:25:49;;;;;;;1.88;1.20;;;;;;;15.86;75.65;98455.28;5072639;28;20049;-78
2022/09/16 12:28:24;;;;;;;2.92;1.48;;;;;;;15.75;77.18;98469.78;5072943;28;20059;-78
2022/09/16 12:31:00;;;;;;;3.72;1.20;;;;;;;15.52;76.76;98444.03;5070229;28;20399;-77
2022/09/16 12:33:31;;;;;;;4.57;1.50;;;;;;;15.80;76.30;98448.00;5069490;28;20052;-77
2022/09/16 12:36:03;;;;;;;7.57;1.38;;;;;;;16.35;78.00;98451.47;5073040;28;20135;-78
2022/09/16 12:38:30;;;;;;;4.20;1.23;;;;;;;16.47;73.35;98446.84;5072600;28;20055;-78
2022/09/16 12:41:12;;;;;;;7.53;1.80;;;;;;;16.59;72.82;98433.91;5072227;28;20060;-78
2022/09/16 12:44:08;;;;;;;3.45;1.40;;;;;;;16.89;70.85;98445.78;5072186;28;20052;-77
2022/09/16 12:46:59;;;;;;;6.50;1.23;;;;;;;16.96;68.21;98441.00;5068521;28;20045;-76
2022/09/16 12:50:07;;;;;;;4.63;1.10;;;;;;;17.24;69.55;98442.91;5068810;28;20058;-76
2022/09/16 12:52:50;;;;;;;2.67;1.13;;;;;;;16.97;68.03;98434.44;5068386;28;20044;-78
2022/09/16 12:55:36;;;;;;;1.92;1.10;;;;;;;17.01;69.46;98432.03;5072501;28;20099;-78
2022/09/16 12:58:24;;;;;;;6.57;1.48;;;;;;;16.89;64.40;98435.66;5053689;28;20576;-78
2022/09/16 13:00:58;;;;;;;7.07;1.85;;;;;;;16.98;69.28;98434.19;5063054;28;20054;-78
2022/09/16 13:03:27;;;;;;;6.35;1.77;;;;;;;17.14;67.53;98434.47;5071481;28;20384;-78
2022/09/16 13:05:57;;;;;;;2.17;1.20;;;;;;;16.92;68.70;98432.44;5064139;28;20044;-78
2022/09/16 13:08:26;;;;;;;2.95;1.38;;;;;;;16.95;67.19;98440.19;5071892;28;20318;-76
2022/09/16 13:10:58;;;;;;;3.50;1.25;;;;;;;16.83;67.76;98430.28;5072154;28;20067;-76
2022/09/16 13:13:32;;;;;;;4.95;1.38;;;;;;;17.23;66.84;98433.00;5058302;28;20048;-76
2022/09/16 13:16:00;;;;;;;4.07;1.88;;;;;;;17.14;64.85;98431.75;5063616;28;20094;-77
2022/09/16 13:18:40;;;;;;;3.33;1.30;;;;;;;16.94;65.46;98416.53;5071920;28;20044;-77
2022/09/16 13:21:15;;;;;;;3.30;1.20;;;;;;;16.88;65.96;98414.78;5071634;28;20047;-77
2022/09/16 13:23:46;;;;;;;2.85;1.30;;;;;;;17.00;65.84;98411.97;5065783;28;20052;-77
2022/09/16 13:26:13;;;;;;;1.92;1.15;;;;;;;16.67;66.26;98413.50;5067588;28;20486;-77
2022/09/16 13:28:43;;;;;;;4.40;1.70;;;;;;;16.49;69.93;98417.25;5060424;28;20053;-77
2022/09/16 13:31:17;;;;;;;4.65;2.05;;;;;;;16.43;70.19;98418.22;5071601;28;20060;-78
2022/09/16 13:33:45;;;;;;;3.63;1.08;;;;;;;16.41;68.48;98421.19;5070109;28;20454;-78
2022/09/16 13:36:30;;;;;;;3.80;1.20;;;;;;;16.33;68.60;98420.72;5063374;28;20049;-77
2022/09/16 13:38:58;;;;;;;3.35;1.58;;;;;;;16.25;66.94;98417.25;5071440;28;20044;-78
2022/09/16 13:41:34;;;;;;;6.45;1.50;;;;;;;16.88;65.42;98408.47;5058097;28;20049;-75
2022/09/16 13:44:24;;;;;;;3.70;1.05;;;;;;;17.22;61.95;98403.03;5060421;28;20541;-75
2022/09/16 13:46:50;;;;;;;2.90;1.20;;;;;;;17.56;62.10;98411.34;5070973;28;20052;-76
2022/09/16 13:49:20;;;;;;;5.00;1.40;;;;;;;17.52;60.85;98400.84;5071226;28;20055;-76
2022/09/16 13:51:49;;;;;;;4.82;1.42;;;;;;;17.78;60.05;98403.16;5071650;28;20056;-75
2022/09/16 13:54:25;;;;;;;6.32;1.45;;;;;;;17.94;57.83;98401.53;5070289;28;20097;-76
2022/09/16 13:57:12;;;;;;;4.18;1.17;;;;;;;18.25;55.93;98393.72;5053965;28;20052;-76
2022/09/16 13:59:52;;;;;;;3.40;1.10;;;;;;;18.39;57.59;98404.09;5057508;28;20144;-76
2022/09/16 14:02:28;;;;;;;4.50;0.90;;;;;;;18.60;55.03;98401.63;5068862;28;20048;-76
2022/09/16 14:05:15;;;;;;;2.83;1.05;;;;;;;18.24;54.65;98411.31;5070972;28;20052;-76
2022/09/16 14:07:49;;;;;;;3.05;1.23;;;;;;;18.07;57.05;98394.84;5071421;28;20059;-76
2022/09/16 14:10:23;;;;;;;4.50;1.05;;;;;;;18.19;56.20;98399.16;5070100;28;20129;-77
2022/09/16 14:12:59;;;;;;;1.65;1.08;;;;;;;18.37;56.21;98388.94;5064973;28;20083;-76
2022/09/16 14:15:27;;;;;;;5.70;1.17;;;;;;;18.45;56.62;98384.91;5054958;28;20068;-76
2022/09/16 14:18:00;;;;;;;3.10;1.50;;;;;;;17.98;55.00;98387.00;5068929;28;20057;-76
2022/09/16 14:20:27;;;;;;;3.03;1.38;;;;;;;18.19;54.86;98390.91;5067987;28;20052;-77
2022/09/16 14:23:01;;;;;;;5.05;1.65;;;;;;;18.50;55.28;98390.47;5068372;28;20048;-78
2022/09/16 14:25:31;;;;;;;3.30;1.10;;;;;;;18.59;55.17;98394.44;5055775;28;20143;-78
2022/09/16 14:28:08;;;;;;;8.70;1.10;;;;;;;18.07;55.99;98398.44;5062509;28;20055;-78
2022/09/16 14:30:36;;;;;;;1.50;1.02;;;;;;;17.65;57.53;98401.59;5062933;28;20401;-77
2022/09/16 14:36:25;;;;;;;5.10;1.30;;;;;;;18.39;56.41;98395.00;5049505;28;20078;-76
2022/09/16 14:39:04;;;;;;;5.45;1.80;;;;;;;18.26;56.71;98387.97;5068857;28;20044;-77
2022/09/16 14:41:36;;;;;;;2.33;0.90;;;;;;;18.63;56.92;98386.50;5066058;28;20075;-76
2022/09/16 14:44:10;;;;;;;3.10;0.98;;;;;;;18.72;55.62;98390.47;5058308;28;20480;-77
2022/09/16 14:46:42;;;;;;;1.73;0.85;;;;;;;18.31;54.78;98382.53;5059608;28;20056;-77
2022/09/16 14:49:11;;;;;;;2.00;1.20;;;;;;;18.45;55.14;98390.41;5064426;28;20079;-77
2022/09/16 14:51:43;;;;;;;2.10;1.10;;;;;;;18.40;55.95;98393.94;5057405;28;20135;-77
2022/09/16 14:54:16;;;;;;;4.05;1.15;;;;;;;18.51;54.49;98401.22;5064215;28;20055;-77
2022/09/16 14:56:42;;;;;;;2.58;0.95;;;;;;;18.64;54.84;98393.66;5066501;28;20052;-77
2022/09/16 14:59:12;;;;;;;9.65;1.67;;;;;;;18.59;54.45;98402.69;5067344;28;20310;-77
2022/09/16 15:01:39;;;;;;;;;;;;;;;18.64;54.88;98390.91;5067025;28;20045;-77
2022/09/16 15:04:14;;;;;;;2.20;0.90;;;;;;;18.46;55.10;98398.41;5067746;28;19985;-76
2022/09/16 15:06:47;;;;;;;5.78;1.13;;;;;;;18.42;55.22;98397.25;5067847;28;20061;-77
2022/09/16 15:09:17;;;;;;;5.30;1.02;;;;;;;18.33;54.85;98398.78;5066004;28;20040;-77
2022/09/16 15:11:46;;;;;;;6.20;1.27;;;;;;;18.06;51.39;98390.44;5061021;28;20139;-77
2022/09/16 15:14:13;;;;;;;9.25;1.15;;;;;;;17.80;53.43;98388.09;5070576;28;20288;-77
2022/09/16 15:16:44;;;;;;;3.00;1.00;;;;;;;17.82;52.56;98387.84;5066756;28;20048;-77
2022/09/16 15:19:19;;;;;;;3.20;0.75;;;;;;;18.14;51.96;98393.59;5072122;28;20063;-77
2022/09/16 15:21:47;;;;;;;2.38;0.90;;;;;;;18.34;52.31;98386.69;5071690;28;20048;-77
2022/09/16 15:24:18;;;;;;;6.30;0.88;;;;;;;18.33;52.82;98387.78;5066879;28;20056;-77
2022/09/16 15:26:46;;;;;;;4.13;0.70;;;;;;;18.28;52.44;98388.53;5051906;28;20443;-76
2022/09/16 15:29:28;;;;;;;2.78;0.80;;;;;;;18.00;50.42;98375.75;5052943;28;20075;-77
2022/09/16 15:32:05;;;;;;;5.38;1.00;;;;;;;17.94;50.18;98379.53;5060196;28;20045;-77
2022/09/16 15:34:32;;;;;;;1.58;0.77;;;;;;;18.02;51.40;98379.94;5062330;28;20384;-77
2022/09/16 15:37:00;;;;;;;1.80;0.70;;;;;;;18.11;50.14;98380.34;5058897;28;20048;-77
2022/09/16 15:39:28;;;;;;;3.22;0.70;;;;;;;18.14;50.47;98376.22;5071824;28;20045;-78
2022/09/16 15:42:11;;;;;;;3.08;0.80;;;;;;;18.27;49.30;98380.53;5071756;28;20474;-77
2022/09/16 15:44:42;;;;;;;9.73;3.33;;;;;;;18.33;49.29;98385.84;5071318;28;20049;-77
2022/09/16 15:47:17;;;;;;;7.13;3.78;;;;;;;18.42;49.44;98383.50;5062154;28;20487;-77
2022/09/16 15:49:44;;;;;;;5.50;1.85;;;;;;;18.17;49.49;98379.31;5071549;28;20519;-78
2022/09/16 15:52:13;;;;;;;4.00;0.95;;;;;;;17.99;49.05;98380.44;5060179;28;20466;-77
2022/09/16 15:54:48;;;;;;;5.82;1.60;;;;;;;18.05;50.15;98378.59;5069061;28;20527;-77
2022/09/16 15:57:26;;;;;;;7.40;3.88;;;;;;;17.85;48.91;98385.44;5071023;28;20090;-77
2022/09/16 16:00:07;;;;;;;8.57;3.25;;;;;;;17.71;49.31;98391.53;5065557;28;20135;-77
2022/09/16 16:02:39;;;;;;;4.43;1.90;;;;;;;17.72;50.50;98387.66;5070778;28;20044;-77
2022/09/16 16:05:08;;;;;;;3.67;1.00;;;;;;;17.55;49.12;98374.75;5068619;28;20059;-78
2022/09/16 16:07:42;;;;;;;6.38;1.10;;;;;;;17.43;49.82;98377.63;5065746;28;20076;-77
2022/09/16 16:10:15;;;;;;;8.63;1.23;;;;;;;17.26;51.15;98383.06;5061303;28;20132;-78
2022/09/16 16:12:44;;;;;;;3.60;0.95;;;;;;;17.09;51.91;98376.72;5048578;28;20045;-77
2022/09/16 16:15:11;;;;;;;2.83;0.70;;;;;;;17.07;54.62;98373.38;5067800;28;20363;-77
2022/09/16 16:17:39;;;;;;;5.47;0.90;;;;;;;16.99;52.77;98380.09;5051279;28;20084;-77
2022/09/16 16:20:06;;;;;;;2.70;1.00;;;;;;;16.83;53.84;98395.44;5050256;28;20390;-77
2022/09/16 16:22:33;;;;;;;2.00;0.60;;;;;;;16.70;55.76;98398.47;5060954;28;20049;-78
2022/09/16 16:25:01;;;;;;;2.00;0.90;;;;;;;16.18;59.13;98408.31;5063273;28;20083;-77
2022/09/16 16:27:27;;;;;;;4.13;0.63;;;;;;;15.85;62.16;98411.69;5054817;28;20048;-76
2022/09/16 16:29:54;;;;;;;2.95;0.70;;;;;;;15.45;64.64;98426.84;5063935;28;20048;-77
2022/09/16 16:32:20;;;;;;;1.70;0.85;;;;;;;15.30;66.20;98431.94;5065565;28;20439;-77
2022/09/16 16:34:49;;;;;;;3.42;0.73;;;;;;;15.12;67.87;98428.16;5058404;28;20068;-76
2022/09/16 16:37:17;;;;;;;2.40;0.60;;;;;;;14.92;68.85;98439.41;5060174;28;20477;-77
2022/09/16 16:39:44;;;;;;;1.63;0.70;;;;;;;14.94;70.88;98436.44;5060375;28;20045;-77
2022/09/16 16:42:13;;;;;;;0.70;0.65;;;;;;;14.86;70.38;98443.91;5062889;28;20091;-77
2022/09/16 16:44:39;;;;;;;2.50;0.85;;;;;;;14.84;73.59;98447.91;5064571;28;20044;-77
2022/09/16 16:47:07;;;;;;;4.00;0.80;;;;;;;14.67;77.46;98450.44;5061171;28;20495;-76
2022/09/16 16:49:34;;;;;;;2.95;0.90;;;;;;;14.45;76.05;98447.28;5063391;28;20048;-78
2022/09/16 16:52:01;;;;;;;1.67;0.60;;;;;;;14.24;78.70;98445.84;5062874;28;20044;-76
2022/09/16 16:54:28;;;;;;;4.47;1.00;;;;;;;14.25;82.94;98444.78;5056158;28;20052;-76
2022/09/16 16:56:55;;;;;;;1.85;0.70;;;;;;;14.09;82.28;98443.47;5069835;28;20060;-76
2022/09/16 16:59:24;;;;;;;5.10;1.00;;;;;;;14.03;86.13;98450.69;5066237;28;20044;-76
2022/09/16 17:01:51;;;;;;;1.85;0.93;;;;;;;13.87;85.98;98456.72;5066548;28;20060;-76
2022/09/16 17:04:18;;;;;;;0.70;0.65;;;;;;;13.96;86.27;98450.75;5063230;28;20067;-76
2022/09/16 17:06:45;;;;;;;2.05;0.90;;;;;;;13.98;87.34;98454.09;5067458;28;20432;-76
2022/09/16 17:09:12;;;;;;;3.15;0.95;;;;;;;13.97;90.57;98459.75;5058852;28;20115;-76
2022/09/16 17:11:50;;;;;;;3.83;0.63;;;;;;;13.96;86.24;98471.78;5058558;28;20125;-76
2022/09/16 17:14:17;;;;;;;2.33;0.70;;;;;;;13.92;87.49;98474.09;5067018;28;20456;-76
2022/09/16 17:16:45;;;;;;;2.35;0.93;;;;;;;13.73;90.43;98484.16;5055685;28;20451;-76
2022/09/16 17:19:13;;;;;;;0.77;0.60;;;;;;;13.43;87.59;98492.97;5069696;28;20310;-76
2022/09/16 17:21:39;;;;;;;1.15;0.50;;;;;;;13.13;88.65;98486.38;5061458;28;20055;-76
2022/09/16 17:24:07;;;;;;;1.95;0.50;;;;;;;13.03;93.61;98498.59;5067022;28;20045;-76
2022/09/16 17:26:34;;;;;;;1.80;0.60;;;;;;;12.87;92.96;98507.28;5063864;28;20052;-76
2022/09/16 17:29:01;;;;;;;0.52;0.50;;;;;;;12.66;94.61;98505.69;5068758;28;20103;-77
2022/09/16 17:31:31;;;;;;;0.75;0.57;;;;;;;12.50;95.21;98505.09;5065427;28;20052;-76
2022/09/16 17:34:01;;;;;;;;;;;;;;;12.49;95.94;98506.13;5057110;28;20467;-76
2022/09/16 17:36:28;;;;;;;2.90;0.52;;;;;;;12.45;97.77;98504.06;5062069;28;20354;-77
2022/09/16 17:38:56;;;;;;;1.35;0.60;;;;;;;12.43;99.18;98503.44;5052486;28;20044;-78
2022/09/16 17:41:23;;;;;;;0.52;0.52;;;;;;;12.43;100.00;98493.38;5059950;28;20072;-77
2022/09/16 17:43:50;;;;;;;1.20;1.08;;;;;;;12.53;99.23;98493.75;5064448;28;20051;-77
2022/09/16 17:46:19;;;;;;;1.45;0.80;;;;;;;12.41;98.85;98495.47;5067684;28;20048;-77
2022/09/16 17:48:49;;;;;;;2.53;0.70;;;;;;;12.19;100.00;98493.00;5059874;28;20052;-77
2022/09/16 17:51:17;;;;;;;1.35;0.60;;;;;;;11.98;100.00;98491.34;5060294;28;20052;-77
2022/09/16 17:53:43;;;;;;;3.15;0.70;;;;;;;12.16;100.00;98498.88;5062578;28;20052;-77
